Time;durP1;ratioP1;P1;durP2;ratioP2;P2;SDS_P1;SDS_P2;PMS_P1;PMS_P2;Temp;Humidity;BMP_temperature;BMP_pressure;BME280_temperature;BME280_humidity;BME280_pressure;Samples;Min_cycle;Max_cycle;Signal;HPM_P1;HPM_P2
2021/05/09 00:01:57;;;;;;;5.77;4.37;;;;;;;9.10;58.07;98550.19;5008835;28;43469;-77
2021/05/09 00:04:25;;;;;;;4.60;4.10;;;;;;;9.08;58.19;98548.59;5008087;28;41975;-75
2021/05/09 00:06:53;;;;;;;4.40;4.00;;;;;;;9.04;58.32;98539.16;5007288;28;40010;-77
2021/05/09 00:09:20;;;;;;;5.03;4.43;;;;;;;9.00;58.10;98544.63;5008523;28;42449;-76
2021/05/09 00:11:48;;;;;;;4.00;3.60;;;;;;;8.98;58.35;98533.31;5007290;28;43538;-74
2021/05/09 00:14:15;;;;;;;4.53;4.07;;;;;;;8.96;58.63;98529.06;4990565;28;41544;-77
2021/05/09 00:16:43;;;;;;;4.23;3.83;;;;;;;8.79;58.80;98508.09;5007165;28;40814;-76
2021/05/09 00:19:10;;;;;;;4.87;4.13;;;;;;;8.71;58.78;98503.28;5008743;28;41600;-75
2021/05/09 00:21:38;;;;;;;4.47;4.00;;;;;;;8.87;59.11;98530.47;5008039;28;43453;-74
2021/05/09 00:24:07;;;;;;;5.03;4.20;;;;;;;8.72;59.31;98515.56;5007396;28;41545;-77
2021/05/09 00:26:34;;;;;;;4.40;4.00;;;;;;;8.83;59.37;98534.25;4990807;28;40303;-76
2021/05/09 00:29:11;;;;;;;4.17;3.60;;;;;;;8.73;59.13;98530.47;5007391;28;41650;-75
2021/05/09 00:31:38;;;;;;;3.80;3.50;;;;;;;8.79;59.34;98532.72;4990751;28;42604;-76
2021/05/09 00:34:06;;;;;;;4.30;3.90;;;;;;;8.77;60.28;98537.28;5008626;28;43104;-76
2021/05/09 00:36:33;;;;;;;4.47;4.07;;;;;;;8.73;60.05;98530.47;5008192;28;39842;-76
2021/05/09 00:39:00;;;;;;;4.60;4.10;;;;;;;8.71;59.90;98529.69;5006647;28;41594;-74
2021/05/09 00:41:27;;;;;;;4.40;4.00;;;;;;;8.67;60.01;98522.91;5006117;28;43217;-77
2021/05/09 00:43:54;;;;;;;4.33;3.93;;;;;;;8.67;60.60;98528.16;5008349;28;41125;-77
2021/05/09 00:46:22;;;;;;;4.40;4.00;;;;;;;8.62;61.24;98514.41;4993653;28;38995;-74
2021/05/09 00:48:49;;;;;;;4.83;4.30;;;;;;;8.59;60.72;98517.22;5010544;28;42037;-76
2021/05/09 00:51:17;;;;;;;5.07;4.63;;;;;;;8.61;60.52;98524.13;5009962;28;41927;-74
2021/05/09 00:53:45;;;;;;;5.23;4.03;;;;;;;8.58;60.78;98521.66;4993724;28;41154;-75
2021/05/09 00:56:13;;;;;;;3.80;3.50;;;;;;;8.52;61.28;98510.63;5009476;28;40426;-75
2021/05/09 00:58:43;;;;;;;4.60;4.20;;;;;;;8.57;61.91;98511.19;4979999;28;40697;-74
2021/05/09 01:01:12;;;;;;;4.40;4.00;;;;;;;8.56;61.60;98514.78;4973192;28;41767;-76
2021/05/09 01:03:43;;;;;;;4.07;3.67;;;;;;;8.54;61.49;98500.81;4990155;28;42121;-74
2021/05/09 01:06:12;;;;;;;4.47;3.83;;;;;;;8.47;61.48;98488.94;4989289;28;41668;-76
2021/05/09 01:08:40;;;;;;;4.47;4.07;;;;;;;8.56;61.37;98509.50;4974172;28;41457;-75
2021/05/09 01:11:08;;;;;;;3.93;3.53;;;;;;;8.49;61.42;98502.91;4989527;28;43423;-76
2021/05/09 01:13:35;;;;;;;3.37;3.03;;;;;;;8.52;61.46;98508.00;4991547;28;42937;-75
2021/05/09 01:16:03;;;;;;;4.77;4.27;;;;;;;8.48;61.61;98511.75;4990167;28;39871;-76
2021/05/09 01:18:30;;;;;;;4.93;4.00;;;;;;;8.43;61.65;98497.97;4989562;28;41056;-76
2021/05/09 01:21:00;;;;;;;4.87;4.37;;;;;;;8.39;61.67;98496.47;4990350;28;42440;-74
2021/05/09 01:23:28;;;;;;;4.63;4.23;;;;;;;8.35;61.59;98500.22;4988555;28;43075;-77
2021/05/09 01:25:55;;;;;;;4.80;4.23;;;;;;;8.29;61.61;98491.69;5020523;28;40736;-74
2021/05/09 01:28:22;;;;;;;4.17;3.77;;;;;;;8.28;62.09;98484.72;4993115;28;41636;-76
2021/05/09 01:30:50;;;;;;;5.07;4.60;;;;;;;8.26;61.99;98485.75;5009577;28;43475;-73
2021/05/09 01:33:18;;;;;;;4.30;3.90;;;;;;;8.16;62.76;98459.06;5010866;28;42464;-74
2021/05/09 01:35:45;;;;;;;4.63;4.20;;;;;;;8.22;62.50;98458.72;4993307;28;39032;-75
2021/05/09 01:38:13;;;;;;;4.63;4.20;;;;;;;8.21;62.17;98457.00;5010233;28;41826;-75
2021/05/09 01:40:41;;;;;;;5.63;4.60;;;;;;;8.21;62.53;98467.56;5008996;28;43288;-77
2021/05/09 01:43:08;;;;;;;4.27;3.87;;;;;;;8.16;62.31;98463.50;5009676;28;42939;-77
2021/05/09 01:45:35;;;;;;;4.60;4.20;;;;;;;8.15;62.37;98461.81;4992690;28;39085;-76
2021/05/09 01:48:03;;;;;;;4.07;3.67;;;;;;;8.09;62.16;98460.38;5008324;28;41467;-75
2021/05/09 01:50:31;;;;;;;3.90;3.50;;;;;;;8.11;62.30;98460.28;5008226;28;41550;-76
2021/05/09 01:53:00;;;;;;;3.63;3.33;;;;;;;7.99;62.94;98432.84;5009460;28;41485;-76
2021/05/09 01:55:29;;;;;;;4.00;3.60;;;;;;;8.07;63.33;98446.41;5008367;28;40909;-74
2021/05/09 01:58:08;;;;;;;4.50;4.10;;;;;;;8.06;63.33;98452.63;4983741;28;42021;-75
2021/05/09 02:00:46;;;;;;;3.80;3.47;;;;;;;7.96;63.29;98446.19;4989240;28;42818;-75
2021/05/09 02:03:23;;;;;;;4.50;4.10;;;;;;;8.00;63.23;98452.16;4989018;28;42336;-77
2021/05/09 02:05:50;;;;;;;4.27;3.33;;;;;;;8.02;63.33;98461.69;4989543;28;40661;-75
2021/05/09 02:08:17;;;;;;;4.20;3.80;;;;;;;8.00;63.21;98453.00;4972559;28;40505;-77
2021/05/09 02:10:51;;;;;;;3.97;3.57;;;;;;;7.98;63.53;98452.25;4989131;28;42691;-73
2021/05/09 02:13:18;;;;;;;3.60;3.30;;;;;;;7.96;63.33;98448.84;4988926;28;43005;-76
2021/05/09 02:16:03;;;;;;;3.57;3.27;;;;;;;7.94;63.39;98450.72;4989024;28;39858;-76
2021/05/09 02:18:30;;;;;;;3.47;3.17;;;;;;;7.90;63.73;98442.16;4989147;28;40915;-75
2021/05/09 02:20:57;;;;;;;3.90;3.47;;;;;;;7.83;63.57;98439.94;4990615;28;42643;-75
2021/05/09 02:23:24;;;;;;;3.73;3.30;;;;;;;7.86;63.61;98450.31;4972742;28;41237;-73
2021/05/09 02:25:52;;;;;;;4.13;3.73;;;;;;;7.82;63.60;98448.78;4973365;28;39637;-76
2021/05/09 02:28:19;;;;;;;3.63;3.33;;;;;;;7.78;63.88;98453.41;4990960;28;41614;-76
2021/05/09 02:30:48;;;;;;;4.03;3.73;;;;;;;7.76;63.61;98449.16;4989258;28;43337;-78
2021/05/09 02:33:15;;;;;;;4.47;4.07;;;;;;;7.70;63.84;98431.03;4973607;28;41988;-77
2021/05/09 02:35:46;;;;;;;4.10;3.80;;;;;;;7.73;64.06;98444.06;4972669;28;39968;-75
2021/05/09 02:38:14;;;;;;;3.70;3.40;;;;;;;7.67;63.94;98433.84;4989590;28;40808;-76
2021/05/09 02:40:41;;;;;;;5.30;3.97;;;;;;;7.57;64.01;98412.47;4988036;28;43263;-77
2021/05/09 02:43:09;;;;;;;4.50;4.10;;;;;;;7.69;64.55;98439.88;4989663;28;42562;-76
2021/05/09 02:45:38;;;;;;;4.37;3.33;;;;;;;7.68;64.66;98446.09;4988677;28;41277;-76
2021/05/09 02:48:05;;;;;;;5.70;4.30;;;;;;;7.68;65.81;98433.75;4988470;28;41639;-75
2021/05/09 02:50:34;;;;;;;4.73;4.33;;;;;;;7.71;65.36;98445.94;4972257;28;41720;-75
2021/05/09 02:53:01;;;;;;;4.53;4.13;;;;;;;7.71;65.25;98446.78;4988353;28;42692;-76
2021/05/09 02:55:29;;;;;;;3.70;3.40;;;;;;;7.71;65.04;98446.78;4988251;28;39944;-74
2021/05/09 02:57:56;;;;;;;3.57;3.27;;;;;;;7.71;65.05;98452.03;4992485;28;42182;-75
2021/05/09 03:00:25;;;;;;;4.47;4.00;;;;;;;7.73;64.89;98454.59;4988677;28;42516;-75
2021/05/09 03:02:52;;;;;;;4.57;4.17;;;;;;;7.69;65.31;98453.06;4988221;28;41928;-75
2021/05/09 03:05:24;;;;;;;4.77;3.90;;;;;;;7.71;65.06;98451.19;4988131;28;40381;-77
2021/05/09 03:07:51;;;;;;;4.00;3.70;;;;;;;7.68;65.09;98454.84;4987737;28;41601;-75
2021/05/09 03:10:19;;;;;;;4.60;4.20;;;;;;;7.65;64.87;98451.56;4989052;28;42635;-75
2021/05/09 03:12:46;;;;;;;3.83;3.53;;;;;;;7.66;64.92;98474.34;4988495;28;41912;-75
2021/05/09 03:15:14;;;;;;;3.77;3.47;;;;;;;7.66;64.79;98471.72;5004353;28;39795;-78
2021/05/09 03:17:42;;;;;;;3.90;3.60;;;;;;;7.63;64.56;98470.09;4988281;28;41203;-75
2021/05/09 03:20:11;;;;;;;4.40;4.00;;;;;;;7.61;64.95;98469.31;4987877;28;42685;-74
2021/05/09 03:22:38;;;;;;;3.53;3.23;;;;;;;7.59;64.80;98473.81;4988424;28;42128;-74
2021/05/09 03:25:05;;;;;;;3.87;3.47;;;;;;;7.54;64.55;98466.16;4973156;28;39924;-74
2021/05/09 03:27:32;;;;;;;4.13;3.43;;;;;;;7.55;64.86;98475.78;4987648;28;42439;-75
2021/05/09 03:29:59;;;;;;;3.60;3.30;;;;;;;7.48;64.54;98471.81;5004515;28;42681;-76
2021/05/09 03:32:26;;;;;;;3.70;3.40;;;;;;;7.53;64.74;98477.69;4989226;28;41824;-77
2021/05/09 03:34:55;;;;;;;4.23;3.83;;;;;;;7.52;64.76;98477.75;4989906;28;40892;-74
2021/05/09 03:37:22;;;;;;;3.70;3.30;;;;;;;7.53;65.53;98474.19;4972004;28;41763;-74
2021/05/09 03:39:49;;;;;;;4.50;3.83;;;;;;;7.53;65.91;98469.78;4989698;28;43508;-74
2021/05/09 03:42:17;;;;;;;4.57;4.17;;;;;;;7.53;65.99;98474.19;4971878;28;42185;-77
2021/05/09 03:44:44;;;;;;;4.90;4.40;;;;;;;7.55;65.69;98478.41;4972290;28;38903;-76
2021/05/09 03:47:11;;;;;;;4.60;4.13;;;;;;;7.55;65.76;98488.09;5004040;28;40875;-75
2021/05/09 03:49:38;;;;;;;4.27;3.90;;;;;;;7.55;65.74;98483.69;4988474;28;43457;-74
2021/05/09 03:52:06;;;;;;;4.30;3.83;;;;;;;7.55;65.50;98473.16;4989141;28;41201;-75
2021/05/09 03:54:33;;;;;;;5.60;4.83;;;;;;;7.50;65.48;98469.94;4971974;28;38975;-76
2021/05/09 03:57:02;;;;;;;4.87;3.80;;;;;;;7.57;65.60;98480.97;4987186;28;42434;-75
2021/05/09 03:59:28;;;;;;;6.73;5.10;;;;;;;7.58;66.32;98475.59;5008751;28;42584;-76
2021/05/09 04:01:56;;;;;;;5.10;4.53;;;;;;;7.60;66.37;98479.94;5008509;28;42643;-75
2021/05/09 04:04:23;;;;;;;4.80;4.40;;;;;;;7.62;66.14;98481.56;5006368;28;39638;-77
2021/05/09 04:06:50;;;;;;;4.83;4.30;;;;;;;7.64;66.73;98476.22;4991513;28;40846;-76
2021/05/09 04:09:18;;;;;;;5.77;5.10;;;;;;;7.66;66.21;98479.63;5007187;28;41671;-75
2021/05/09 04:11:45;;;;;;;5.47;4.87;;;;;;;7.69;66.19;98479.41;5008893;28;41985;-75
2021/05/09 04:14:12;;;;;;;4.47;3.80;;;;;;;7.71;66.48;98473.13;5007415;28;39680;-76
2021/05/09 04:16:40;;;;;;;4.60;4.20;;;;;;;7.72;66.30;98468.72;5009043;28;42327;-76
2021/05/09 04:19:07;;;;;;;4.90;4.40;;;;;;;7.76;66.03;98465.81;5010770;28;42798;-76
2021/05/09 04:21:35;;;;;;;4.43;4.03;;;;;;;7.79;66.03;98470.06;4994321;28;41329;-74
2021/05/09 04:24:03;;;;;;;4.33;3.93;;;;;;;7.75;65.72;98458.84;5010606;28;40832;-75
2021/05/09 04:26:31;;;;;;;3.80;3.33;;;;;;;7.79;65.58;98454.25;4994264;28;40885;-76
2021/05/09 04:28:58;;;;;;;4.93;4.43;;;;;;;7.90;65.71;98480.84;5010753;28;43453;-76
2021/05/09 04:31:25;;;;;;;4.67;4.10;;;;;;;7.89;65.44;98464.19;5018867;28;41300;-74
2021/05/09 04:33:53;;;;;;;5.80;4.90;;;;;;;8.00;65.65;98476.75;4997828;28;39375;-75
2021/05/09 04:36:20;;;;;;;7.07;5.00;;;;;;;7.92;65.53;98449.94;4994201;28;41713;-77
2021/05/09 04:38:47;;;;;;;5.13;4.57;;;;;;;8.11;65.47;98470.84;5010107;28;41651;-76
2021/05/09 04:41:14;;;;;;;6.03;4.73;;;;;;;8.14;65.32;98460.97;5012056;28;42239;-75
2021/05/09 04:43:43;;;;;;;7.63;4.80;;;;;;;8.26;65.07;98478.69;5010256;28;39108;-77
2021/05/09 04:46:10;;;;;;;5.30;4.37;;;;;;;8.34;65.15;98480.06;4994309;28;41583;-76
2021/05/09 04:48:37;;;;;;;4.97;4.30;;;;;;;8.40;64.88;98477.91;5009203;28;42906;-75
2021/05/09 04:51:04;;;;;;;4.90;4.40;;;;;;;8.49;64.75;98481.78;5011505;28;42910;-74
2021/05/09 04:53:33;;;;;;;4.60;4.17;;;;;;;8.50;64.81;98481.69;5009644;28;39878;-74
2021/05/09 04:56:01;;;;;;;5.10;4.00;;;;;;;8.55;64.45;98474.34;5011459;28;41516;-76
2021/05/09 04:58:29;;;;;;;3.80;3.50;;;;;;;8.53;64.61;98456.91;4998458;28;42908;-76
2021/05/09 05:00:59;;;;;;;4.37;3.97;;;;;;;8.73;64.38;98476.81;4990878;28;42964;-75
2021/05/09 05:03:27;;;;;;;4.03;3.63;;;;;;;8.84;64.40;98472.56;4989885;28;39745;-76
2021/05/09 05:05:54;;;;;;;4.47;4.07;;;;;;;8.88;64.57;98460.88;4990818;28;41639;-77
2021/05/09 05:08:22;;;;;;;4.43;3.93;;;;;;;9.02;64.26;98464.47;4973847;28;41743;-77
2021/05/09 05:10:50;;;;;;;5.50;4.03;;;;;;;9.13;63.97;98468.13;4989996;28;42577;-74
2021/05/09 05:13:18;;;;;;;3.77;3.37;;;;;;;9.22;64.02;98462.25;4973947;28;41119;-74
2021/05/09 05:15:47;;;;;;;4.03;3.27;;;;;;;9.29;63.69;98462.69;4991674;28;41390;-77
2021/05/09 05:18:18;;;;;;;3.73;3.43;;;;;;;9.43;63.78;98478.53;4990214;28;41321;-77
2021/05/09 05:20:46;;;;;;;3.73;3.33;;;;;;;9.50;63.61;98473.72;4991790;28;41941;-74
2021/05/09 05:23:15;;;;;;;5.17;4.67;;;;;;;9.60;63.49;98466.88;4990674;28;38809;-75
2021/05/09 05:25:43;;;;;;;4.53;4.13;;;;;;;9.72;63.66;98466.94;4990956;28;42074;-76
2021/05/09 05:28:11;;;;;;;4.63;4.23;;;;;;;9.85;63.40;98460.84;4990701;28;41774;-75
2021/05/09 05:30:39;;;;;;;4.10;3.70;;;;;;;9.82;63.59;98434.59;4988947;28;41833;-76
2021/05/09 05:33:06;;;;;;;4.30;3.90;;;;;;;10.08;63.33;98468.09;4990155;28;39973;-76
2021/05/09 05:35:36;;;;;;;3.87;3.57;;;;;;;10.19;63.26;98459.47;4989087;28;41525;-76
2021/05/09 05:38:03;;;;;;;4.10;3.80;;;;;;;10.30;63.51;98455.16;4990252;28;43036;-76
2021/05/09 05:40:30;;;;;;;4.47;4.07;;;;;;;10.38;63.84;98460.78;4989471;28;42262;-75
2021/05/09 05:42:57;;;;;;;4.40;4.00;;;;;;;10.37;63.59;98443.22;4991274;28;40067;-77
2021/05/09 05:45:24;;;;;;;4.33;3.70;;;;;;;10.67;63.38;98466.72;4989776;28;41534;-77
2021/05/09 05:47:51;;;;;;;4.50;3.73;;;;;;;10.81;62.90;98463.13;4990818;28;44049;-76
2021/05/09 05:50:18;;;;;;;4.97;4.47;;;;;;;11.02;62.95;98471.34;4973887;28;41519;-77
2021/05/09 05:52:48;;;;;;;4.90;4.50;;;;;;;11.12;62.94;98453.88;4972897;28;40077;-77
2021/05/09 05:55:16;;;;;;;5.20;4.70;;;;;;;11.32;62.76;98463.03;4971985;28;43253;-78
2021/05/09 05:57:43;;;;;;;4.83;4.33;;;;;;;11.48;62.70;98468.94;5002580;28;43071;-77
2021/05/09 06:00:11;;;;;;;5.33;4.83;;;;;;;11.61;62.36;98472.41;5008356;28;42104;-76
2021/05/09 06:02:39;;;;;;;4.80;4.30;;;;;;;11.76;61.94;98473.94;5003956;28;40898;-76
2021/05/09 06:05:06;;;;;;;4.90;4.40;;;;;;;11.96;61.99;98471.66;4989243;28;41785;-75
2021/05/09 06:07:33;;;;;;;5.33;4.77;;;;;;;12.11;61.72;98473.16;4989244;28;43348;-76
2021/05/09 06:10:01;;;;;;;4.53;4.13;;;;;;;12.29;61.83;98465.59;4990793;28;42939;-76
2021/05/09 06:12:28;;;;;;;6.67;4.67;;;;;;;12.57;61.33;98466.06;4992165;28;40679;-78
2021/05/09 06:14:56;;;;;;;4.33;3.97;;;;;;;13.01;60.33;98475.03;5009030;28;40731;-76
2021/05/09 06:17:23;;;;;;;5.53;5.03;;;;;;;13.40;59.47;98481.69;5008421;28;43461;-75
2021/05/09 06:19:51;;;;;;;5.00;4.60;;;;;;;13.68;59.07;98480.31;4979910;28;41442;-77
2021/05/09 06:22:18;;;;;;;4.60;4.20;;;;;;;13.90;58.86;98484.75;4990284;28;39971;-77
2021/05/09 06:24:46;;;;;;;6.03;5.07;;;;;;;14.07;58.41;98475.38;4973238;28;41405;-78
2021/05/09 06:27:14;;;;;;;5.80;5.20;;;;;;;14.16;58.28;98475.44;4989227;28;43564;-77
2021/05/09 06:29:41;;;;;;;5.30;4.80;;;;;;;14.35;58.11;98469.41;4973132;28;41403;-77
2021/05/09 06:32:09;;;;;;;5.00;4.57;;;;;;;14.70;58.37;98467.31;5004664;28;40391;-77
2021/05/09 06:34:37;;;;;;;4.63;4.23;;;;;;;15.04;57.42;98459.94;5008076;28;41807;-73
2021/05/09 06:37:04;;;;;;;4.40;4.00;;;;;;;15.36;56.64;98472.25;4992856;28;42762;-75
2021/05/09 06:39:34;;;;;;;4.20;3.90;;;;;;;15.63;56.59;98464.50;5009436;28;40942;-75
2021/05/09 06:42:01;;;;;;;4.57;4.17;;;;;;;16.05;55.34;98465.13;5007529;28;39722;-76
2021/05/09 06:44:32;;;;;;;4.67;4.27;;;;;;;16.52;53.36;98478.63;5007789;28;41895;-77
2021/05/09 06:47:01;;;;;;;15.40;13.80;;;;;;;17.10;51.97;98473.16;4991891;28;41779;-78
2021/05/09 06:49:28;;;;;;;12.20;11.00;;;;;;;17.69;51.28;98482.63;5008293;28;43028;-77
2021/05/09 06:51:55;;;;;;;6.60;5.60;;;;;;;18.06;50.09;98485.22;4997392;28;40082;-76
2021/05/09 06:54:23;;;;;;;5.10;4.60;;;;;;;18.15;49.04;98487.84;4989322;28;42129;-77
2021/05/09 06:56:50;;;;;;;5.27;4.77;;;;;;;18.18;50.04;98490.22;4989714;28;43466;-76
2021/05/09 06:59:18;;;;;;;5.17;4.50;;;;;;;18.15;49.71;98482.50;5001208;28;42148;-74
2021/05/09 07:01:47;;;;;;;5.13;4.67;;;;;;;18.11;49.80;98481.09;4990915;28;38585;-77
2021/05/09 07:04:15;;;;;;;4.93;4.53;;;;;;;18.31;50.29;98482.63;5007266;28;40780;-78
2021/05/09 07:06:47;;;;;;;4.40;4.00;;;;;;;18.53;49.45;98492.06;4992336;28;41967;-76
2021/05/09 07:09:14;;;;;;;4.87;4.37;;;;;;;18.58;50.65;98481.72;4991144;28;41392;-78
2021/05/09 07:11:42;;;;;;;4.87;4.47;;;;;;;18.60;49.04;98497.66;5008624;28;39811;-78
2021/05/09 07:14:09;;;;;;;4.67;4.27;;;;;;;18.70;49.73;98476.94;5009943;28;41620;-77
2021/05/09 07:16:36;;;;;;;4.97;4.43;;;;;;;18.87;49.76;98478.75;5007944;28;42677;-76
2021/05/09 07:19:07;;;;;;;5.00;4.47;;;;;;;19.47;48.01;98492.19;4990159;28;42211;-76
2021/05/09 07:21:35;;;;;;;4.67;4.30;;;;;;;20.31;46.12;98477.84;4988441;28;40347;-77
2021/05/09 07:24:03;;;;;;;4.13;3.83;;;;;;;21.27;44.70;98494.16;4989150;28;42463;-78
2021/05/09 07:26:30;;;;;;;4.67;4.03;;;;;;;22.55;42.08;98505.34;4987970;28;42075;-74
2021/05/09 07:28:57;;;;;;;3.70;3.40;;;;;;;24.41;39.28;98517.03;4972806;28;41098;-76
2021/05/09 07:31:25;;;;;;;4.53;3.50;;;;;;;26.32;36.63;98522.00;4986867;28;39975;-80
2021/05/09 07:33:52;;;;;;;3.50;3.03;;;;;;;27.90;32.80;98545.66;4987660;28;43399;-76
2021/05/09 07:36:20;;;;;;;3.33;3.13;;;;;;;28.92;31.61;98545.63;4987576;28;42412;-80
2021/05/09 07:38:47;;;;;;;3.13;2.93;;;;;;;29.57;31.08;98537.94;4985913;28;41259;-78
2021/05/09 07:41:14;;;;;;;3.07;2.83;;;;;;;29.80;30.02;98525.50;4990226;28;40686;-78
2021/05/09 07:43:45;;;;;;;3.10;2.90;;;;;;;29.97;30.28;98538.38;5007059;28;42024;-78
2021/05/09 07:46:12;;;;;;;2.90;2.70;;;;;;;29.87;30.05;98548.97;5005420;28;42445;-79
2021/05/09 07:48:39;;;;;;;3.40;3.10;;;;;;;29.42;29.71;98542.09;5006465;28;42705;-75
2021/05/09 07:51:06;;;;;;;3.57;3.27;;;;;;;28.85;30.13;98531.19;5006492;28;39787;-79
2021/05/09 07:53:35;;;;;;;3.60;3.30;;;;;;;28.31;30.13;98536.31;5008393;28;41601;-77
2021/05/09 07:56:03;;;;;;;4.00;3.10;;;;;;;27.44;31.25;98475.03;4990493;28;43652;-76
2021/05/09 07:58:32;;;;;;;2.90;2.70;;;;;;;27.06;33.07;98508.31;5007220;28;41200;-76
2021/05/09 08:01:02;;;;;;;3.27;2.97;;;;;;;26.75;33.39;98498.03;4996372;28;41164;-77
2021/05/09 08:03:31;;;;;;;3.30;3.00;;;;;;;26.56;33.94;98490.69;5016624;28;41785;-75
2021/05/09 08:05:58;;;;;;;3.60;3.30;;;;;;;26.51;35.00;98482.31;5013331;28;43412;-76
2021/05/09 08:08:26;;;;;;;3.50;2.93;;;;;;;26.39;34.55;98495.69;4996269;28;42672;-78
2021/05/09 08:10:54;;;;;;;2.67;2.47;;;;;;;26.29;35.25;98469.97;4997947;28;40609;-76
2021/05/09 08:13:21;;;;;;;3.30;3.00;;;;;;;26.32;34.76;98470.41;5009637;28;40534;-78
2021/05/09 08:15:49;;;;;;;3.33;2.87;;;;;;;26.73;34.79;98477.53;5012528;28;42536;-77
2021/05/09 08:18:23;;;;;;;2.93;2.73;;;;;;;27.43;33.43;98479.63;5010361;28;43160;-77
2021/05/09 08:20:51;;;;;;;3.70;3.07;;;;;;;28.20;32.62;98486.06;4993283;28;38727;-78
2021/05/09 08:23:19;;;;;;;3.43;2.90;;;;;;;28.74;31.12;98492.88;5009826;28;41238;-77
2021/05/09 08:25:46;;;;;;;2.90;2.70;;;;;;;29.00;31.38;98491.88;5007958;28;42860;-78
2021/05/09 08:28:15;;;;;;;3.47;3.23;;;;;;;29.01;30.40;98496.25;5008863;28;41888;-78
2021/05/09 08:30:45;;;;;;;13.33;12.03;;;;;;;29.42;30.05;98485.63;4991214;28;40785;-77
2021/05/09 08:33:12;;;;;;;4.63;3.00;;;;;;;30.19;29.22;98484.09;5007530;28;42309;-78
2021/05/09 08:35:45;;;;;;;2.77;2.57;;;;;;;31.25;27.09;98501.69;5007358;28;42409;-77
2021/05/09 08:38:12;;;;;;;3.07;2.87;;;;;;;32.58;26.43;98508.94;4991129;28;42045;-80
2021/05/09 08:40:42;;;;;;;2.73;2.53;;;;;;;34.27;24.33;98514.09;5006843;28;40030;-78
2021/05/09 08:43:09;;;;;;;3.03;2.70;;;;;;;35.61;22.70;98525.00;5008843;28;41100;-78
2021/05/09 08:45:40;;;;;;;3.93;2.07;;;;;;;36.80;22.66;98506.81;4975937;28;42814;-78
2021/05/09 08:48:16;;;;;;;3.07;2.87;;;;;;;37.54;20.43;98520.09;4970351;28;41733;-80
2021/05/09 08:50:47;;;;;;;2.93;2.63;;;;;;;38.20;19.03;98519.94;4988020;28;39955;-77
2021/05/09 08:53:16;;;;;;;2.70;2.50;;;;;;;38.97;19.27;98515.63;4987401;28;41450;-76
2021/05/09 08:55:44;;;;;;;2.80;2.50;;;;;;;39.95;18.17;98495.88;5022642;28;42746;-76
2021/05/09 08:58:12;;;;;;;2.83;2.58;;;;;;;40.80;17.45;98509.75;5006158;28;42292;-77
2021/05/09 09:00:40;;;;;;;9.40;8.52;;;;;;;40.74;17.61;98497.09;4993550;28;39877;-77
2021/05/09 09:03:13;;;;;;;7.10;6.50;;;;;;;39.93;18.29;98489.84;4970978;28;40417;-77
2021/05/09 09:05:45;;;;;;;2.55;2.35;;;;;;;39.07;19.18;98482.34;4990010;28;42319;-77
2021/05/09 09:08:14;;;;;;;2.50;2.30;;;;;;;38.24;20.20;98462.94;4994547;28;42972;-77
2021/05/09 09:10:45;;;;;;;2.90;2.60;;;;;;;37.47;20.66;98453.22;5009640;28;39954;-76
2021/05/09 09:13:24;;;;;;;3.83;2.87;;;;;;;36.60;21.66;98422.84;4994001;28;40869;-78
2021/05/09 09:15:57;;;;;;;4.20;2.57;;;;;;;36.11;22.19;98435.41;5005841;28;43512;-76
2021/05/09 09:18:38;;;;;;;2.63;2.43;;;;;;;35.58;22.74;98426.38;4973717;28;41150;-78
2021/05/09 09:21:20;;;;;;;2.30;2.10;;;;;;;35.44;23.85;98408.69;4991110;28;40312;-76
2021/05/09 09:23:49;;;;;;;2.27;2.07;;;;;;;35.14;23.71;98410.09;4978464;28;41034;-80
2021/05/09 09:26:37;;;;;;;2.27;2.13;;;;;;;35.00;23.41;98414.41;5010208;28;43187;-77
2021/05/09 09:29:22;;;;;;;4.47;2.50;;;;;;;35.20;23.33;98409.06;5009605;28;41474;-78
2021/05/09 09:31:54;;;;;;;4.90;2.70;;;;;;;35.17;23.09;98401.31;5011240;28;40514;-79
2021/05/09 09:34:22;;;;;;;2.60;2.40;;;;;;;35.04;22.89;98404.53;5009482;28;41025;-77
2021/05/09 09:37:02;;;;;;;2.90;2.60;;;;;;;34.85;23.42;98392.31;5010312;28;43479;-78
2021/05/09 09:39:46;;;;;;;2.57;2.37;;;;;;;35.50;23.82;98393.81;5009212;28;42081;-78
2021/05/09 09:42:33;;;;;;;2.43;2.30;;;;;;;36.23;21.82;98403.78;5010768;28;39637;-78
2021/05/09 09:45:13;;;;;;;2.55;2.00;;;;;;;37.45;21.07;98405.72;5009525;28;42379;-78
2021/05/09 09:47:48;;;;;;;2.15;1.98;;;;;;;38.39;20.01;98426.88;4973726;28;42802;-79
2021/05/09 09:50:35;;;;;;;2.42;2.22;;;;;;;38.39;20.90;98415.81;4990120;28;42979;-78
2021/05/09 09:53:23;;;;;;;2.20;2.00;;;;;;;38.85;20.02;98408.00;4974156;28;38985;-78
2021/05/09 09:56:00;;;;;;;2.10;1.90;;;;;;;40.38;18.93;98412.66;4989312;28;41547;-76
2021/05/09 09:58:47;;;;;;;2.60;2.40;;;;;;;41.23;18.49;98404.06;5008737;28;41687;-77
2021/05/09 10:01:16;;;;;;;2.38;2.03;;;;;;;41.71;17.69;98403.69;5008914;28;42283;-78
2021/05/09 10:03:45;;;;;;;2.67;1.98;;;;;;;42.36;17.92;98403.41;5010711;28;39268;-76
2021/05/09 10:06:13;;;;;;;2.05;1.90;;;;;;;43.21;16.19;98408.00;5009861;28;42281;-78
2021/05/09 10:08:41;;;;;;;2.50;1.55;;;;;;;43.70;16.68;98391.00;5008428;28;43522;-78
2021/05/09 10:11:09;;;;;;;2.60;2.00;;;;;;;43.90;15.49;98395.16;5011301;28;42698;-80
2021/05/09 10:13:40;;;;;;;1.92;1.73;;;;;;;44.22;15.53;98373.56;5008356;28;41571;-77
2021/05/09 10:16:08;;;;;;;2.30;2.08;;;;;;;44.43;15.58;98368.16;5008951;28;42462;-77
2021/05/09 10:18:39;;;;;;;1.40;1.30;;;;;;;44.98;14.53;98385.88;5010355;28;43428;-76
2021/05/09 10:21:10;;;;;;;2.50;1.45;;;;;;;45.40;13.79;98374.88;4992533;28;41557;-77
2021/05/09 10:24:08;;;;;;;1.63;1.50;;;;;;;45.72;13.71;98354.66;4992064;28;40103;-77
2021/05/09 10:26:44;;;;;;;1.50;1.30;;;;;;;46.31;13.32;98376.22;4992805;28;43050;-76
2021/05/09 10:29:59;;;;;;;2.03;1.83;;;;;;;46.35;13.41;98354.75;4988726;28;41869;-80
2021/05/09 10:32:50;;;;;;;1.30;1.20;;;;;;;45.41;14.23;98356.94;5006442;28;20632;-79
2021/05/09 10:35:32;;;;;;;2.47;1.35;;;;;;;44.75;14.26;98334.16;4989187;28;38973;-79
2021/05/09 10:38:08;;;;;;;2.25;1.27;;;;;;;45.25;14.00;98339.09;4972894;28;40834;-77
2021/05/09 10:40:37;;;;;;;1.60;1.20;;;;;;;45.31;13.60;98343.34;5003623;28;41650;-77
2021/05/09 10:43:40;;;;;;;1.40;1.30;;;;;;;45.00;13.24;98347.22;5010118;28;42280;-75
2021/05/09 10:46:09;;;;;;;1.73;1.52;;;;;;;44.49;13.40;98336.94;5010050;28;39987;-75
2021/05/09 10:49:09;;;;;;;1.50;1.40;;;;;;;44.11;15.03;98310.84;4989246;28;41610;-77
2021/05/09 10:51:38;;;;;;;3.17;1.40;;;;;;;44.54;14.25;98313.59;4989640;28;42487;-80
2021/05/09 10:54:21;;;;;;;2.45;1.55;;;;;;;44.78;13.71;98302.72;4990150;28;42719;-76
2021/05/09 10:56:49;;;;;;;1.75;1.58;;;;;;;44.52;13.95;98315.91;4989402;28;39867;-75
2021/05/09 10:59:16;;;;;;;2.00;1.50;;;;;;;43.43;14.70;98313.13;5000255;28;42135;-77
2021/05/09 11:01:44;;;;;;;1.63;1.52;;;;;;;42.74;15.42;98289.69;5008391;28;42585;-76
2021/05/09 11:04:12;;;;;;;1.80;1.70;;;;;;;42.85;14.75;98289.13;5008565;28;42738;-80
2021/05/09 11:06:45;;;;;;;1.38;1.27;;;;;;;42.80;14.65;98288.41;5008477;28;41632;-82
2021/05/09 11:09:16;;;;;;;1.85;1.38;;;;;;;42.55;15.50;98276.78;4989743;28;42388;-77
2021/05/09 11:12:10;;;;;;;2.00;1.52;;;;;;;42.62;15.59;98270.78;4989359;28;45412;-77
2021/05/09 11:14:42;;;;;;;2.80;1.30;;;;;;;42.75;15.51;98261.50;4971910;28;42063;-77
2021/05/09 11:17:18;;;;;;;4.30;1.30;;;;;;;43.12;14.26;98284.47;4987763;28;39760;-77
2021/05/09 11:19:51;;;;;;;1.63;1.52;;;;;;;42.64;14.89;98277.69;4972354;28;42426;-80
2021/05/09 11:22:23;;;;;;;3.53;1.60;;;;;;;41.99;15.28;98240.38;5005732;28;42373;-76
2021/05/09 11:25:08;;;;;;;1.50;1.38;;;;;;;41.41;16.68;98241.94;4992199;28;42307;-80
2021/05/09 11:27:45;;;;;;;1.55;1.45;;;;;;;41.37;17.15;98224.22;5008489;28;39892;-79
2021/05/09 11:30:14;;;;;;;1.90;1.45;;;;;;;41.76;17.42;98231.16;4992041;28;41435;-79
2021/05/09 11:32:47;;;;;;;1.50;1.40;;;;;;;42.26;15.38;98241.06;5007093;28;43378;-77
2021/05/09 11:35:14;;;;;;;1.75;1.40;;;;;;;42.22;15.61;98245.59;5009202;28;41926;-81
2021/05/09 11:37:42;;;;;;;1.30;1.17;;;;;;;42.55;14.59;98248.13;5008734;28;39760;-76
2021/05/09 11:40:11;;;;;;;1.63;1.35;;;;;;;42.43;15.23;98245.09;5010167;28;41910;-76
2021/05/09 11:42:39;;;;;;;1.70;1.60;;;;;;;42.06;15.46;98240.72;5008804;28;42747;-77
2021/05/09 11:45:08;;;;;;;2.67;1.40;;;;;;;42.03;15.88;98222.72;5007887;28;42273;-76
2021/05/09 11:47:36;;;;;;;1.70;1.20;;;;;;;42.01;16.67;98213.88;5007005;28;39899;-77
2021/05/09 11:50:06;;;;;;;1.40;1.30;;;;;;;42.65;15.18;98231.16;5009681;28;41533;-79